EmailTwitter


Observations de surface / Québec / CYSC

Régions: Québec | Canada | États-Unis | Europe | France | UK | Elsewhere
Station
Affichage
Infos & localisation pour CYSC | Aide pour décoder les METARs

Observations prises le 2017-03-30 à 04H41 UTC à SHERBROOKE, QB (CYSC)

Etat du ciel: couvert.

Obstacle(s) à la visibilité: faible neige.

Température: -1.0 Celsius

Point de rosée: -4.0 Celsius

Humidité relative: 80%

Facteur vent: -6.

Vents: Nord-ouest à 19 km/h ou 10 noeuds.

Pression au niveau moyen de la mer: 102.35 kilopascals.

Calage altimétrique: 102.23 kilopascals ou 30.19 pouces de mercure.

Visibilité horizontale: 4.00 milles terrestres ou 6.40 kilomètres.

Hauteur du plafond: 732 mètres ( 2400 pieds ).

Observation METAR:

CYSC 300441Z AUTO 32010KT 4SM -SN BKN024 OVC055 M01/M04 A3019 RMK SLP235=